createdAt,value
2018-06-05T00:00:33.916Z,0.00
2018-06-05T00:01:33.948Z,0.00
2018-06-05T00:02:33.842Z,0.00
2018-06-05T00:03:33.795Z,0.00
2018-06-05T00:04:33.743Z,0.00
2018-06-05T00:05:33.746Z,0.00
2018-06-05T00:06:33.669Z,0.00
2018-06-05T00:07:33.631Z,0.00
2018-06-05T00:08:33.641Z,0.00
2018-06-05T00:09:33.565Z,0.00
2018-06-05T00:10:33.614Z,0.00
2018-06-05T00:11:33.482Z,0.00
2018-06-05T00:12:33.508Z,0.00
2018-06-05T00:13:33.432Z,0.00
2018-06-05T00:14:33.466Z,0.00
2018-06-05T00:15:33.357Z,0.00
2018-06-05T00:16:33.306Z,0.00
2018-06-05T00:17:33.340Z,0.00
2018-06-05T00:18:33.211Z,0.00
2018-06-05T00:19:33.180Z,0.00
2018-06-05T00:20:33.169Z,0.00
2018-06-05T00:21:33.108Z,0.00
2018-06-05T00:22:33.069Z,0.00
2018-06-05T00:23:33.029Z,0.00
2018-06-05T00:24:43.294Z,0.00
2018-06-05T00:25:33.137Z,0.00
2018-06-05T00:26:32.927Z,0.00
2018-06-05T00:27:32.878Z,0.00
2018-06-05T00:28:32.900Z,0.00
2018-06-05T00:29:32.796Z,0.00
2018-06-05T00:30:32.792Z,0.00
2018-06-05T00:31:32.777Z,0.00
2018-06-05T00:32:32.695Z,0.00
2018-06-05T00:33:32.643Z,0.00
2018-06-05T00:34:32.735Z,0.00
2018-06-05T00:35:32.587Z,0.00
2018-06-05T00:36:32.539Z,0.00
2018-06-05T00:37:32.496Z,0.00
2018-06-05T00:38:32.459Z,0.00
2018-06-05T00:39:32.472Z,0.00
2018-06-05T00:40:32.381Z,0.00
2018-06-05T00:41:32.371Z,0.00
2018-06-05T00:42:32.308Z,0.00
2018-06-05T00:43:32.281Z,0.00
2018-06-05T00:44:32.344Z,0.00
2018-06-05T00:45:32.191Z,0.00
2018-06-05T00:46:32.163Z,0.00
2018-06-05T00:47:42.629Z,0.00
2018-06-05T00:48:32.082Z,0.00
2018-06-05T00:49:32.060Z,0.00
2018-06-05T00:50:32.017Z,0.00
2018-06-05T00:51:31.968Z,0.00
2018-06-05T00:52:32.065Z,0.00
2018-06-05T00:53:31.931Z,0.00
2018-06-05T00:54:31.909Z,0.00
2018-06-05T00:55:31.813Z,0.00
2018-06-05T00:56:31.790Z,0.00
2018-06-05T00:57:31.743Z,0.00
2018-06-05T00:58:31.717Z,0.00
2018-06-05T00:59:31.703Z,0.00
2018-06-05T01:00:31.623Z,0.00
2018-06-05T01:01:31.588Z,0.00
2018-06-05T01:02:31.683Z,0.00
2018-06-05T01:03:31.516Z,0.00
2018-06-05T01:04:31.503Z,0.00
2018-06-05T01:05:31.503Z,0.00
2018-06-05T01:06:31.422Z,0.00
2018-06-05T01:07:31.448Z,0.00
2018-06-05T01:08:31.387Z,0.00
2018-06-05T01:09:31.317Z,0.00
2018-06-05T01:10:31.258Z,0.00
2018-06-05T01:11:31.286Z,0.00
2018-06-05T01:12:31.163Z,0.00
2018-06-05T01:13:31.160Z,0.00
2018-06-05T01:14:31.100Z,0.00
2018-06-05T01:15:31.050Z,0.00
2018-06-05T01:16:31.045Z,0.00
2018-06-05T01:17:30.989Z,0.00
2018-06-05T01:18:30.938Z,0.00
2018-06-05T01:19:31.094Z,0.00
2018-06-05T01:20:30.930Z,0.00
2018-06-05T01:21:30.886Z,0.00
2018-06-05T01:22:30.807Z,0.00
2018-06-05T01:23:30.779Z,0.00
2018-06-05T01:24:30.943Z,0.00
2018-06-05T01:25:30.693Z,0.00
2018-06-05T01:26:30.651Z,0.00
2018-06-05T01:27:30.658Z,0.00
2018-06-05T01:28:30.612Z,0.00
2018-06-05T01:29:30.537Z,0.00
2018-06-05T01:30:30.502Z,0.00
2018-06-05T01:31:30.463Z,0.00
2018-06-05T01:32:30.437Z,0.00
2018-06-05T01:33:30.387Z,0.00
2018-06-05T01:34:30.372Z,0.00
2018-06-05T01:35:30.304Z,0.00
2018-06-05T01:36:30.276Z,0.00
2018-06-05T01:37:30.229Z,0.00
2018-06-05T01:38:30.199Z,0.00
2018-06-05T01:39:30.165Z,0.00
2018-06-05T01:40:30.162Z,0.00
2018-06-05T01:41:30.096Z,0.00
2018-06-05T01:42:30.057Z,0.00
2018-06-05T01:43:30.017Z,0.00
2018-06-05T01:44:30.048Z,0.00
2018-06-05T01:45:29.926Z,0.00
2018-06-05T01:46:29.923Z,0.00
2018-06-05T01:47:29.868Z,0.00
2018-06-05T01:48:29.847Z,0.00
2018-06-05T01:49:29.793Z,0.00
2018-06-05T01:50:29.752Z,0.00
2018-06-05T01:51:29.728Z,0.00
2018-06-05T01:52:29.732Z,0.00
2018-06-05T01:53:29.644Z,0.00
2018-06-05T01:54:29.676Z,0.00
2018-06-05T01:55:29.564Z,0.00
2018-06-05T01:56:29.607Z,0.00
2018-06-05T01:57:29.477Z,0.00
2018-06-05T01:58:38.339Z,0.00
2018-06-05T01:59:29.695Z,0.00
2018-06-05T02:00:29.406Z,0.00
2018-06-05T02:01:29.358Z,0.00
2018-06-05T02:02:29.299Z,0.00
2018-06-05T02:03:29.263Z,0.00
2018-06-05T02:04:29.217Z,0.00
2018-06-05T02:05:29.187Z,0.00
2018-06-05T02:06:29.181Z,0.00
2018-06-05T02:07:39.590Z,0.00
2018-06-05T02:08:29.094Z,0.00
2018-06-05T02:09:29.047Z,0.00
2018-06-05T02:10:29.017Z,0.00
2018-06-05T02:11:28.967Z,0.00
2018-06-05T02:12:29.169Z,0.00
2018-06-05T02:13:28.877Z,0.00
2018-06-05T02:14:28.987Z,0.00
2018-06-05T02:15:28.853Z,0.00
2018-06-05T02:16:28.817Z,0.00
2018-06-05T02:17:28.741Z,0.00
2018-06-05T02:18:28.726Z,0.00
2018-06-05T02:19:28.656Z,0.00
2018-06-05T02:20:28.642Z,0.00
2018-06-05T02:21:38.625Z,0.00
2018-06-05T02:22:28.546Z,0.00
2018-06-05T02:23:28.536Z,0.00
2018-06-05T02:24:28.523Z,0.00
2018-06-05T02:25:28.458Z,0.00
2018-06-05T02:26:39.701Z,0.00
2018-06-05T02:27:28.484Z,0.00
2018-06-05T02:28:28.352Z,0.00
2018-06-05T02:29:28.635Z,0.00
2018-06-05T02:30:28.444Z,0.00
2018-06-05T02:31:28.207Z,0.00
2018-06-05T02:32:28.176Z,0.00
2018-06-05T02:33:28.125Z,0.00
2018-06-05T02:34:28.249Z,0.00
2018-06-05T02:35:28.156Z,0.00
2018-06-05T02:36:28.042Z,0.00
2018-06-05T02:37:28.020Z,0.00
2018-06-05T02:38:27.953Z,0.00
2018-06-05T02:39:28.006Z,0.00
2018-06-05T02:40:27.904Z,0.00
2018-06-05T02:41:27.843Z,0.00
2018-06-05T02:42:27.811Z,0.00
2018-06-05T02:43:27.875Z,4.00
2018-06-05T02:44:27.729Z,4.00
2018-06-05T02:45:27.723Z,4.00
2018-06-05T02:46:36.689Z,0.00
2018-06-05T02:47:27.625Z,0.00
2018-06-05T02:48:27.723Z,4.00
2018-06-05T02:49:27.534Z,4.00
2018-06-05T02:50:27.489Z,8.00
2018-06-05T02:51:27.470Z,4.00
2018-06-05T02:52:27.560Z,4.00
2018-06-05T02:53:27.383Z,8.00
2018-06-05T02:54:27.338Z,8.00
2018-06-05T02:55:27.307Z,8.00
2018-06-05T02:56:27.299Z,12.00
2018-06-05T02:57:27.233Z,12.00
2018-06-05T02:58:27.191Z,12.00
2018-06-05T02:59:27.151Z,16.00
2018-06-05T03:00:27.127Z,16.00
2018-06-05T03:01:27.139Z,20.00
2018-06-05T03:02:27.058Z,24.00
2018-06-05T03:03:27.007Z,24.00
2018-06-05T03:04:26.968Z,24.00
2018-06-05T03:05:27.062Z,28.00
2018-06-05T03:06:37.961Z,28.00
2018-06-05T03:07:26.859Z,32.00
2018-06-05T03:08:26.845Z,32.00
2018-06-05T03:09:26.788Z,36.00
2018-06-05T03:10:26.852Z,40.00
2018-06-05T03:11:26.708Z,48.00
2018-06-05T03:12:26.706Z,52.00
2018-06-05T03:13:26.649Z,56.00
2018-06-05T03:14:26.611Z,60.00
2018-06-05T03:15:26.572Z,64.00
2018-06-05T03:16:26.523Z,64.00
2018-06-05T03:17:26.477Z,68.00
2018-06-05T03:18:26.469Z,68.00
2018-06-05T03:19:26.437Z,80.00
2018-06-05T03:20:26.510Z,88.00
2018-06-05T03:21:26.336Z,92.00
2018-06-05T03:22:26.292Z,92.00
2018-06-05T03:23:26.293Z,104.00
2018-06-05T03:24:26.220Z,120.00
2018-06-05T03:25:26.188Z,132.00
2018-06-05T03:26:26.224Z,144.00
2018-06-05T03:27:26.117Z,152.00
2018-06-05T03:28:26.064Z,156.00
2018-06-05T03:29:26.068Z,172.00
2018-06-05T03:30:25.997Z,200.00
2018-06-05T03:31:26.127Z,200.00
2018-06-05T03:32:36.363Z,200.00
2018-06-05T03:33:25.876Z,212.00
2018-06-05T03:34:25.844Z,236.00
2018-06-05T03:35:25.964Z,256.00
2018-06-05T03:36:25.769Z,260.00
2018-06-05T03:37:25.777Z,276.00
2018-06-05T03:38:25.697Z,304.00
2018-06-05T03:39:25.733Z,364.00
2018-06-05T03:40:25.652Z,392.00
2018-06-05T03:41:25.713Z,380.00
2018-06-05T03:42:25.602Z,388.00
2018-06-05T03:43:25.516Z,404.00
2018-06-05T03:44:25.466Z,440.00
2018-06-05T03:45:25.472Z,508.00
2018-06-05T03:46:33.003Z,544.00
2018-06-05T03:47:25.359Z,548.00
2018-06-05T03:48:25.322Z,588.00
2018-06-05T03:49:25.278Z,640.00
2018-06-05T03:50:25.239Z,676.00
2018-06-05T03:51:25.198Z,712.00
2018-06-05T03:52:25.208Z,724.00
2018-06-05T03:53:25.151Z,732.00
2018-06-05T03:54:25.204Z,780.00
2018-06-05T03:55:25.071Z,824.00
2018-06-05T03:56:36.297Z,892.00
2018-06-05T03:57:25.099Z,992.00
2018-06-05T03:58:24.934Z,976.00
2018-06-05T03:59:24.919Z,940.00
2018-06-05T04:00:24.883Z,912.00
2018-06-05T04:01:24.854Z,932.00
2018-06-05T04:02:25.016Z,1016.00
2018-06-05T04:03:24.971Z,1096.00
2018-06-05T04:04:24.799Z,1104.00
2018-06-05T04:05:24.815Z,1152.00
2018-06-05T04:06:24.649Z,1244.00
2018-06-05T04:07:24.632Z,1288.00
2018-06-05T04:08:24.571Z,1292.00
2018-06-05T04:09:24.576Z,1256.00
2018-06-05T04:10:24.515Z,1192.00
2018-06-05T04:11:24.480Z,1224.00
2018-06-05T04:12:24.417Z,1356.00
2018-06-05T04:13:24.503Z,1384.00
2018-06-05T04:14:24.363Z,1388.00
2018-06-05T04:15:24.460Z,1492.00
2018-06-05T04:16:24.326Z,1556.00
2018-06-05T04:17:24.248Z,1524.00
2018-06-05T04:18:24.228Z,1576.00
2018-06-05T04:19:24.159Z,1708.00
2018-06-05T04:20:24.243Z,1744.00
2018-06-05T04:21:24.113Z,1740.00
2018-06-05T04:22:24.054Z,1688.00
2018-06-05T04:23:24.032Z,1680.00
2018-06-05T04:24:23.984Z,1768.00
2018-06-05T04:25:23.948Z,1856.00
2018-06-05T04:26:23.916Z,1908.00
2018-06-05T04:27:23.862Z,2000.00
2018-06-05T04:28:23.838Z,2120.00
2018-06-05T04:29:23.855Z,2164.00
2018-06-05T04:30:23.756Z,2112.00
2018-06-05T04:31:23.707Z,2220.00
2018-06-05T04:32:23.720Z,2540.00
2018-06-05T04:33:23.727Z,2620.00
2018-06-05T04:34:23.670Z,2392.00
2018-06-05T04:35:23.583Z,2196.00
2018-06-05T04:36:23.618Z,2184.00
2018-06-05T04:37:23.495Z,2220.00
2018-06-05T04:38:23.478Z,2304.00
2018-06-05T04:39:23.403Z,2524.00
2018-06-05T04:40:23.388Z,2700.00
2018-06-05T04:41:23.500Z,2728.00
2018-06-05T04:42:23.414Z,2820.00
2018-06-05T04:43:33.405Z,2856.00
2018-06-05T04:44:23.232Z,2792.00
2018-06-05T04:45:23.192Z,2652.00
2018-06-05T04:46:23.242Z,2480.00
2018-06-05T04:47:23.127Z,2464.00
2018-06-05T04:48:23.095Z,2536.00
2018-06-05T04:49:23.085Z,2688.00
2018-06-05T04:50:23.011Z,2776.00
2018-06-05T04:51:22.957Z,2744.00
2018-06-05T04:52:22.944Z,2792.00
2018-06-05T04:53:22.889Z,2948.00
2018-06-05T04:54:22.878Z,3272.00
2018-06-05T04:55:22.839Z,3564.00
2018-06-05T04:56:22.796Z,3760.00
2018-06-05T04:57:22.739Z,3772.00
2018-06-05T04:58:22.705Z,3820.00
2018-06-05T04:59:22.683Z,3956.00
2018-06-05T05:00:22.647Z,4176.00
2018-06-05T05:01:22.589Z,4480.00
2018-06-05T05:02:22.553Z,4408.00
2018-06-05T05:03:22.535Z,4120.00
2018-06-05T05:04:22.516Z,4100.00
2018-06-05T05:05:33.866Z,4324.00
2018-06-05T05:06:32.941Z,4648.00
2018-06-05T05:07:22.474Z,4908.00
2018-06-05T05:08:22.352Z,5112.00
2018-06-05T05:09:22.300Z,5224.00
2018-06-05T05:10:22.280Z,5392.00
2018-06-05T05:11:22.216Z,5628.00
2018-06-05T05:12:22.183Z,5436.00
2018-06-05T05:13:22.152Z,4864.00
2018-06-05T05:14:22.119Z,4528.00
2018-06-05T05:15:22.077Z,4336.00
2018-06-05T05:16:22.064Z,4116.00
2018-06-05T05:17:21.999Z,3932.00
2018-06-05T05:18:21.971Z,3980.00
2018-06-05T05:19:21.924Z,4092.00
2018-06-05T05:20:21.988Z,4152.00
2018-06-05T05:21:21.858Z,4316.00
2018-06-05T05:22:21.840Z,4560.00
2018-06-05T05:23:21.836Z,4732.00
2018-06-05T05:24:32.901Z,4744.00
2018-06-05T05:25:21.727Z,4652.00
2018-06-05T05:26:21.731Z,4436.00
2018-06-05T05:27:21.663Z,4300.00
2018-06-05T05:28:21.601Z,4444.00
2018-06-05T05:29:21.774Z,4700.00
2018-06-05T05:30:32.047Z,4880.00
2018-06-05T05:31:21.563Z,4968.00
2018-06-05T05:32:21.560Z,4980.00
2018-06-05T05:33:21.445Z,4964.00
2018-06-05T05:34:21.378Z,4952.00
2018-06-05T05:35:21.476Z,5040.00
2018-06-05T05:36:21.358Z,5168.00
2018-06-05T05:37:21.292Z,5096.00
2018-06-05T05:38:21.262Z,4992.00
2018-06-05T05:39:21.244Z,4980.00
2018-06-05T05:40:21.165Z,5332.00
2018-06-05T05:41:21.170Z,5868.00
2018-06-05T05:42:21.089Z,6232.00
2018-06-05T05:43:21.055Z,6368.00
2018-06-05T05:44:21.067Z,6436.00
2018-06-05T05:45:20.991Z,6292.00
2018-06-05T05:46:20.949Z,6040.00
2018-06-05T05:47:20.908Z,5892.00
2018-06-05T05:48:20.858Z,5820.00
2018-06-05T05:49:20.843Z,5756.00
2018-06-05T05:50:20.817Z,5776.00
2018-06-05T05:51:20.751Z,5752.00
2018-06-05T05:52:20.846Z,5660.00
2018-06-05T05:53:20.722Z,5756.00
2018-06-05T05:54:20.675Z,5880.00
2018-06-05T05:55:20.656Z,6056.00
2018-06-05T05:56:20.604Z,6252.00
2018-06-05T05:57:20.541Z,6232.00
2018-06-05T05:58:20.502Z,6000.00
2018-06-05T05:59:20.486Z,5812.00
2018-06-05T06:00:20.433Z,5772.00
2018-06-05T06:01:20.387Z,5708.00
2018-06-05T06:02:20.446Z,5556.00
2018-06-05T06:03:20.319Z,5436.00
2018-06-05T06:04:29.978Z,5452.00
2018-06-05T06:05:20.265Z,5572.00
2018-06-05T06:06:20.209Z,5708.00
2018-06-05T06:07:20.217Z,5744.00
2018-06-05T06:08:20.135Z,5740.00
2018-06-05T06:09:20.110Z,5836.00
2018-06-05T06:10:20.107Z,6040.00
2018-06-05T06:11:20.087Z,6152.00
2018-06-05T06:12:19.990Z,6188.00
2018-06-05T06:13:20.064Z,6192.00
2018-06-05T06:14:19.921Z,6080.00
2018-06-05T06:15:19.881Z,5852.00
2018-06-05T06:16:19.905Z,5716.00
2018-06-05T06:17:19.819Z,5756.00
2018-06-05T06:18:19.774Z,5940.00
2018-06-05T06:19:19.831Z,6080.00
2018-06-05T06:20:19.702Z,5996.00
2018-06-05T06:21:19.668Z,5872.00
2018-06-05T06:22:19.656Z,5956.00
2018-06-05T06:23:19.604Z,6132.00
2018-06-05T06:24:19.570Z,6352.00
2018-06-05T06:25:19.657Z,6760.00
2018-06-05T06:26:19.497Z,7076.00
2018-06-05T06:27:19.484Z,7096.00
2018-06-05T06:28:19.417Z,7060.00
2018-06-05T06:29:19.502Z,6984.00
2018-06-05T06:30:19.481Z,7152.00
2018-06-05T06:31:19.303Z,7320.00
2018-06-05T06:32:19.423Z,7372.00
2018-06-05T06:33:19.321Z,7500.00
2018-06-05T06:34:19.317Z,7392.00
2018-06-05T06:35:19.165Z,7124.00
2018-06-05T06:36:19.131Z,7160.00
2018-06-05T06:37:19.091Z,7408.00
2018-06-05T06:38:19.095Z,7372.00
2018-06-05T06:39:19.109Z,7072.00
2018-06-05T06:40:31.176Z,6764.00
2018-06-05T06:41:19.107Z,6460.00
2018-06-05T06:42:18.926Z,6260.00
2018-06-05T06:43:18.860Z,6284.00
2018-06-05T06:44:18.971Z,6460.00
2018-06-05T06:45:18.888Z,6624.00
2018-06-05T06:46:18.779Z,6668.00
2018-06-05T06:47:18.725Z,6768.00
2018-06-05T06:48:18.687Z,6992.00
2018-06-05T06:49:18.778Z,7288.00
2018-06-05T06:50:18.618Z,7564.00
2018-06-05T06:51:18.571Z,7696.00
2018-06-05T06:52:18.560Z,7716.00
2018-06-05T06:53:18.515Z,7628.00
2018-06-05T06:54:18.470Z,7444.00
2018-06-05T06:55:18.469Z,7252.00
2018-06-05T06:56:18.393Z,7216.00
2018-06-05T06:57:18.515Z,7184.00
2018-06-05T06:58:18.321Z,7108.00
2018-06-05T06:59:18.297Z,7084.00
2018-06-05T07:00:18.256Z,7144.00
2018-06-05T07:01:18.368Z,7384.00
2018-06-05T07:02:18.202Z,7768.00
2018-06-05T07:03:18.131Z,8056.00
2018-06-05T07:04:18.344Z,8104.00
2018-06-05T07:05:18.226Z,8108.00
2018-06-05T07:06:18.047Z,8196.00
2018-06-05T07:07:18.046Z,8292.00
2018-06-05T07:08:18.007Z,8340.00
2018-06-05T07:09:17.927Z,8476.00
2018-06-05T07:10:17.908Z,8864.00
2018-06-05T07:11:17.870Z,9316.00
2018-06-05T07:12:18.015Z,9524.00
2018-06-05T07:13:17.804Z,9536.00
2018-06-05T07:14:17.867Z,9376.00
2018-06-05T07:15:17.720Z,9004.00
2018-06-05T07:16:17.718Z,8580.00
2018-06-05T07:17:17.664Z,8380.00
2018-06-05T07:18:17.653Z,8280.00
2018-06-05T07:19:17.565Z,8064.00
2018-06-05T07:20:17.520Z,7716.00
2018-06-05T07:21:17.513Z,7296.00
2018-06-05T07:22:17.508Z,6896.00
2018-06-05T07:23:17.431Z,6540.00
2018-06-05T07:24:17.399Z,6396.00
2018-06-05T07:25:17.349Z,6552.00
2018-06-05T07:26:17.318Z,6804.00
2018-06-05T07:27:17.313Z,7028.00
2018-06-05T07:28:17.251Z,7296.00
2018-06-05T07:29:17.215Z,7612.00
2018-06-05T07:30:17.253Z,7968.00
2018-06-05T07:31:17.148Z,8428.00
2018-06-05T07:32:17.105Z,8968.00
2018-06-05T07:33:17.106Z,9644.00
2018-06-05T07:34:17.030Z,10196.00
2018-06-05T07:35:16.988Z,10628.00
2018-06-05T07:36:16.990Z,10916.00
2018-06-05T07:37:16.919Z,11028.00
2018-06-05T07:38:16.916Z,10988.00
2018-06-05T07:39:16.911Z,10604.00
2018-06-05T07:40:16.799Z,10108.00
2018-06-05T07:41:16.785Z,9756.00
2018-06-05T07:42:16.748Z,9564.00
2018-06-05T07:43:27.217Z,9488.00
2018-06-05T07:44:16.724Z,9460.00
2018-06-05T07:45:16.663Z,9484.00
2018-06-05T07:46:16.624Z,9596.00
2018-06-05T07:47:16.557Z,9796.00
2018-06-05T07:48:16.522Z,9996.00
2018-06-05T07:49:16.528Z,10128.00
2018-06-05T07:50:16.464Z,10152.00
2018-06-05T07:51:16.415Z,10188.00
2018-06-05T07:52:16.375Z,10332.00
2018-06-05T07:53:16.339Z,10568.00
2018-06-05T07:54:16.324Z,10748.00
2018-06-05T07:55:16.326Z,10892.00
2018-06-05T07:56:16.246Z,10916.00
2018-06-05T07:57:16.208Z,10792.00
2018-06-05T07:58:16.181Z,10664.00
2018-06-05T07:59:16.143Z,10596.00
2018-06-05T08:00:16.093Z,10660.00
2018-06-05T08:01:16.094Z,10904.00
2018-06-05T08:02:26.308Z,11176.00
2018-06-05T08:03:27.242Z,11132.00
2018-06-05T08:04:15.973Z,10756.00
2018-06-05T08:05:15.930Z,10212.00
2018-06-05T08:06:15.872Z,9972.00
2018-06-05T08:07:15.866Z,9836.00
2018-06-05T08:08:15.809Z,9708.00
2018-06-05T08:09:15.775Z,9552.00
2018-06-05T08:10:15.725Z,9288.00
2018-06-05T08:11:15.690Z,9000.00
2018-06-05T08:12:15.689Z,8812.00
2018-06-05T08:13:15.639Z,8788.00
2018-06-05T08:14:15.590Z,8868.00
2018-06-05T08:15:15.576Z,8852.00
2018-06-05T08:16:15.517Z,8824.00
2018-06-05T08:17:15.515Z,8888.00
2018-06-05T08:18:15.453Z,8928.00
2018-06-05T08:19:15.408Z,9044.00
2018-06-05T08:20:15.371Z,9176.00
2018-06-05T08:21:15.347Z,9364.00
2018-06-05T08:22:15.335Z,9684.00
2018-06-05T08:23:15.271Z,10064.00
2018-06-05T08:24:15.228Z,10424.00
2018-06-05T08:25:15.207Z,10708.00
2018-06-05T08:26:15.165Z,10964.00
2018-06-05T08:27:15.145Z,11244.00
2018-06-05T08:28:15.089Z,11628.00
2018-06-05T08:29:15.052Z,12136.00
2018-06-05T08:30:15.009Z,12760.00
2018-06-05T08:31:14.978Z,13416.00
2018-06-05T08:32:15.033Z,13940.00
2018-06-05T08:33:14.908Z,14124.00
2018-06-05T08:34:14.885Z,14088.00
2018-06-05T08:35:14.854Z,14072.00
2018-06-05T08:36:14.875Z,14008.00
2018-06-05T08:37:14.799Z,13852.00
2018-06-05T08:38:25.179Z,13588.00
2018-06-05T08:39:14.740Z,13860.00
2018-06-05T08:40:14.659Z,14656.00
2018-06-05T08:41:14.624Z,15268.00
2018-06-05T08:42:14.615Z,15440.00
2018-06-05T08:43:14.581Z,15496.00
2018-06-05T08:44:14.523Z,15540.00
2018-06-05T08:45:14.596Z,15452.00
2018-06-05T08:46:14.478Z,15352.00
2018-06-05T08:47:15.902Z,15148.00
2018-06-05T08:48:14.468Z,15116.00
2018-06-05T08:49:14.366Z,15188.00
2018-06-05T08:50:14.353Z,15524.00
2018-06-05T08:51:14.407Z,15736.00
2018-06-05T08:52:14.297Z,15492.00
2018-06-05T08:53:14.239Z,14920.00
2018-06-05T08:54:14.215Z,14248.00
2018-06-05T08:55:14.193Z,13540.00
2018-06-05T08:56:14.100Z,12692.00
2018-06-05T08:57:14.067Z,11864.00
2018-06-05T08:58:14.064Z,11220.00
2018-06-05T08:59:14.106Z,11012.00
2018-06-05T09:00:13.980Z,11240.00
2018-06-05T09:01:24.349Z,11656.00
2018-06-05T09:02:24.366Z,11996.00
2018-06-05T09:03:14.848Z,12500.00
2018-06-05T09:04:14.032Z,13224.00
2018-06-05T09:05:15.549Z,14032.00
2018-06-05T09:06:13.759Z,14732.00
2018-06-05T09:07:13.711Z,15376.00
2018-06-05T09:08:13.691Z,15864.00
2018-06-05T09:09:13.746Z,16112.00
2018-06-05T09:10:13.617Z,16164.00
2018-06-05T09:11:13.589Z,15896.00
2018-06-05T09:12:13.539Z,15452.00
2018-06-05T09:13:13.530Z,15068.00
2018-06-05T09:14:13.506Z,14772.00
2018-06-05T09:15:13.452Z,14528.00
2018-06-05T09:16:13.402Z,14192.00
2018-06-05T09:17:13.366Z,13776.00
2018-06-05T09:18:13.334Z,13452.00
2018-06-05T09:19:13.326Z,13260.00
2018-06-05T09:20:13.270Z,13120.00
2018-06-05T09:21:13.249Z,12964.00
2018-06-05T09:22:13.205Z,12988.00
2018-06-05T09:23:13.169Z,13368.00
2018-06-05T09:24:13.186Z,13784.00
2018-06-05T09:25:13.110Z,13940.00
2018-06-05T09:26:13.054Z,13836.00
2018-06-05T09:27:13.027Z,13620.00
2018-06-05T09:28:13.013Z,13324.00
2018-06-05T09:29:12.960Z,13196.00
2018-06-05T09:30:12.958Z,13200.00
2018-06-05T09:31:12.872Z,13208.00
2018-06-05T09:32:12.858Z,13304.00
2018-06-05T09:33:12.810Z,13524.00
2018-06-05T09:34:12.786Z,13740.00
2018-06-05T09:35:12.752Z,13780.00
2018-06-05T09:36:12.736Z,13572.00
2018-06-05T09:37:12.671Z,13136.00
2018-06-05T09:38:12.649Z,12588.00
2018-06-05T09:39:12.590Z,12236.00
2018-06-05T09:40:22.594Z,12220.00
2018-06-05T09:41:24.083Z,12636.00
2018-06-05T09:42:14.122Z,13124.00
2018-06-05T09:43:13.066Z,13436.00
2018-06-05T09:44:12.463Z,13560.00
2018-06-05T09:45:13.999Z,13540.00
2018-06-05T09:46:12.398Z,13324.00
2018-06-05T09:47:12.336Z,13020.00
2018-06-05T09:48:26.205Z,12704.00
2018-06-05T09:49:12.591Z,12556.00
2018-06-05T09:50:14.862Z,12624.00
2018-06-05T09:51:14.825Z,12820.00
2018-06-05T09:52:13.624Z,13000.00
2018-06-05T09:53:12.176Z,13080.00
2018-06-05T09:54:12.167Z,13072.00
2018-06-05T09:55:12.175Z,13124.00
2018-06-05T09:56:14.318Z,13196.00
2018-06-05T09:57:12.033Z,13300.00
2018-06-05T09:58:13.318Z,13432.00
2018-06-05T09:59:11.989Z,13556.00
2018-06-05T10:00:11.883Z,13596.00
2018-06-05T10:01:22.744Z,13560.00
2018-06-05T10:02:12.573Z,13580.00
2018-06-05T10:03:11.794Z,13736.00
2018-06-05T10:04:13.781Z,13848.00
2018-06-05T10:05:11.710Z,13740.00
2018-06-05T10:06:11.735Z,13436.00
2018-06-05T10:07:11.607Z,13228.00
2018-06-05T10:08:11.618Z,13176.00
2018-06-05T10:09:11.625Z,13064.00
2018-06-05T10:10:11.519Z,12984.00
2018-06-05T10:11:11.482Z,12952.00
2018-06-05T10:12:11.434Z,12840.00
2018-06-05T10:13:23.409Z,12712.00
2018-06-05T10:14:12.043Z,12724.00
2018-06-05T10:15:11.409Z,12776.00
2018-06-05T10:16:11.291Z,12752.00
2018-06-05T10:17:11.254Z,12856.00
2018-06-05T10:18:11.230Z,13112.00
2018-06-05T10:19:11.221Z,13240.00
2018-06-05T10:20:11.166Z,13200.00
2018-06-05T10:21:22.405Z,13296.00
2018-06-05T10:22:22.930Z,13476.00
2018-06-05T10:23:11.040Z,13704.00
2018-06-05T10:24:11.263Z,13856.00
2018-06-05T10:25:11.688Z,13548.00
2018-06-05T10:26:11.158Z,13072.00
2018-06-05T10:27:10.911Z,12700.00
2018-06-05T10:28:10.881Z,12644.00
2018-06-05T10:29:10.841Z,12972.00
2018-06-05T10:30:10.840Z,13312.00
2018-06-05T10:31:10.785Z,13124.00
2018-06-05T10:32:10.736Z,12972.00
2018-06-05T10:33:10.862Z,13060.00
2018-06-05T10:34:10.688Z,13500.00
2018-06-05T10:35:10.658Z,14004.00
2018-06-05T10:36:10.620Z,14224.00
2018-06-05T10:37:10.562Z,14560.00
2018-06-05T10:38:10.934Z,14772.00
2018-06-05T10:39:10.486Z,14868.00
2018-06-05T10:40:10.493Z,14868.00
2018-06-05T10:41:10.448Z,14768.00
2018-06-05T10:42:21.389Z,14760.00
2018-06-05T10:43:10.439Z,14928.00
2018-06-05T10:44:10.373Z,15076.00
2018-06-05T10:45:10.274Z,15048.00
2018-06-05T10:46:10.272Z,14976.00
2018-06-05T10:47:10.289Z,15104.00
2018-06-05T10:48:10.316Z,15196.00
2018-06-05T10:49:10.153Z,15312.00
2018-06-05T10:50:10.095Z,15392.00
2018-06-05T10:51:10.091Z,15388.00
2018-06-05T10:52:10.064Z,15372.00
2018-06-05T10:53:10.008Z,15436.00
2018-06-05T10:54:09.971Z,15596.00
2018-06-05T10:55:09.941Z,15816.00
2018-06-05T10:56:09.919Z,16064.00
2018-06-05T10:57:10.009Z,16760.00
2018-06-05T10:58:09.898Z,17920.00
2018-06-05T10:59:09.792Z,18784.00
2018-06-05T11:00:09.750Z,19616.00
2018-06-05T11:01:19.707Z,19616.00
2018-06-05T11:02:21.229Z,19200.00
2018-06-05T11:03:10.105Z,19072.00
2018-06-05T11:04:09.628Z,19136.00
2018-06-05T11:05:09.625Z,19200.00
2018-06-05T11:06:11.862Z,19264.00
2018-06-05T11:07:09.665Z,19744.00
2018-06-05T11:08:09.534Z,20288.00
2018-06-05T11:09:09.442Z,20384.00
2018-06-05T11:10:09.412Z,20288.00
2018-06-05T11:11:09.417Z,20064.00
2018-06-05T11:12:09.469Z,19552.00
2018-06-05T11:13:09.441Z,19296.00
2018-06-05T11:14:09.280Z,19552.00
2018-06-05T11:15:09.251Z,19872.00
2018-06-05T11:16:09.230Z,20256.00
2018-06-05T11:17:09.160Z,20672.00
2018-06-05T11:18:09.141Z,21216.00
2018-06-05T11:19:09.097Z,22272.00
2018-06-05T11:20:09.185Z,23424.00
2018-06-05T11:21:09.035Z,23840.00
2018-06-05T11:22:09.038Z,23392.00
2018-06-05T11:23:18.080Z,22336.00
2018-06-05T11:24:09.076Z,21184.00
2018-06-05T11:25:09.130Z,20288.00
2018-06-05T11:26:19.293Z,19936.00
2018-06-05T11:27:08.851Z,20224.00
2018-06-05T11:28:08.827Z,20416.00
2018-06-05T11:29:10.136Z,20608.00
2018-06-05T11:30:08.744Z,21408.00
2018-06-05T11:31:08.678Z,22816.00
2018-06-05T11:32:08.696Z,24224.00
2018-06-05T11:33:08.607Z,25440.00
2018-06-05T11:34:08.580Z,25664.00
2018-06-05T11:35:08.555Z,25472.00
2018-06-05T11:36:08.530Z,25344.00
2018-06-05T11:37:08.482Z,25312.00
2018-06-05T11:38:08.734Z,25984.00
2018-06-05T11:39:08.498Z,27360.00
2018-06-05T11:40:08.509Z,28192.00
2018-06-05T11:41:08.354Z,28096.00
2018-06-05T11:42:08.335Z,26912.00
2018-06-05T11:43:20.069Z,25088.00
2018-06-05T11:44:08.419Z,23872.00
2018-06-05T11:45:08.220Z,23360.00
2018-06-05T11:46:08.785Z,23296.00
2018-06-05T11:47:08.166Z,23328.00
2018-06-05T11:48:08.103Z,23392.00
2018-06-05T11:49:08.091Z,24320.00
2018-06-05T11:50:08.165Z,26112.00
2018-06-05T11:51:08.038Z,28256.00
2018-06-05T11:52:07.964Z,30112.00
2018-06-05T11:53:07.972Z,31264.00
2018-06-05T11:54:07.920Z,32672.00
2018-06-05T11:55:07.878Z,33056.00
2018-06-05T11:56:07.844Z,35104.00
2018-06-05T11:57:07.804Z,34272.00
2018-06-05T11:58:08.088Z,34080.00
2018-06-05T11:59:07.748Z,31808.00
2018-06-05T12:00:07.722Z,30496.00
2018-06-05T12:01:07.668Z,30240.00
2018-06-05T12:02:19.463Z,30048.00
2018-06-05T12:03:18.664Z,29216.00
2018-06-05T12:04:07.645Z,28480.00
2018-06-05T12:05:07.537Z,27776.00
2018-06-05T12:06:07.501Z,27552.00
2018-06-05T12:07:07.467Z,27808.00
2018-06-05T12:08:07.494Z,27200.00
2018-06-05T12:09:07.406Z,26528.00
2018-06-05T12:10:07.373Z,26656.00
2018-06-05T12:11:07.603Z,26880.00
2018-06-05T12:12:07.317Z,26656.00
2018-06-05T12:13:07.276Z,26016.00
2018-06-05T12:14:17.367Z,25856.00
2018-06-05T12:15:07.696Z,26336.00
2018-06-05T12:16:07.194Z,26368.00